Time;durP1;ratioP1;P1;durP2;ratioP2;P2;SDS_P1;SDS_P2;PMS_P1;PMS_P2;Temp;Humidity;BMP_temperature;BMP_pressure;BME280_temperature;BME280_humidity;BME280_pressure;Samples;Min_cycle;Max_cycle;Signal;HPM_P1;HPM_P2
2023/10/10 00:02:28;;;;;;;43.78;19.83;;;6.20;99.90;;;;;;5054093;28;20021;-78
2023/10/10 00:04:59;;;;;;;29.38;14.50;;;6.10;99.90;;;;;;5045898;28;20135;-82
2023/10/10 00:07:27;;;;;;;29.65;14.52;;;6.10;99.90;;;;;;5051328;28;20029;-78
2023/10/10 00:09:53;;;;;;;30.10;15.85;;;6.10;99.90;;;;;;5054523;28;20458;-78
2023/10/10 00:12:19;;;;;;;36.80;16.33;;;6.10;99.90;;;;;;5053886;28;20120;-81
2023/10/10 00:14:50;;;;;;;39.90;18.73;;;6.00;99.90;;;;;;5054858;28;20021;-82
2023/10/10 00:17:17;;;;;;;38.45;19.35;;;5.90;99.90;;;;;;5062375;28;20025;-81
2023/10/10 00:19:45;;;;;;;38.83;18.60;;;5.90;99.90;;;;;;5055037;28;20017;-82
2023/10/10 00:22:11;;;;;;;39.67;17.05;;;5.90;99.90;;;;;;5056000;28;20025;-82
2023/10/10 00:24:37;;;;;;;38.13;19.45;;;5.90;99.90;;;;;;5055700;28;20507;-78
2023/10/10 00:27:12;;;;;;;39.60;19.52;;;5.80;99.90;;;;;;5054692;28;20037;-82
2023/10/10 00:29:44;;;;;;;33.33;18.42;;;5.80;99.90;;;;;;5054291;28;20021;-78
2023/10/10 00:32:18;;;;;;;32.20;15.77;;;5.90;99.90;;;;;;5061495;28;20036;-82
2023/10/10 00:34:48;;;;;;;33.97;16.92;;;5.90;99.90;;;;;;5054551;28;20020;-82
2023/10/10 00:37:25;;;;;;;33.20;16.02;;;5.90;99.90;;;;;;5054976;28;20020;-82
2023/10/10 00:39:53;;;;;;;32.22;17.48;;;5.80;99.90;;;;;;5060561;28;20028;-78
2023/10/10 00:42:37;;;;;;;31.38;16.83;;;5.90;99.90;;;;;;5054255;28;20111;-78
2023/10/10 00:45:04;;;;;;;33.70;15.20;;;5.90;99.90;;;;;;5055292;28;20810;-78
2023/10/10 00:47:38;;;;;;;37.70;17.50;;;5.90;99.90;;;;;;5054170;28;20052;-81
2023/10/10 00:50:08;;;;;;;34.28;17.67;;;5.90;99.90;;;;;;5066203;28;20048;-78
2023/10/10 00:52:38;;;;;;;30.42;16.80;;;5.90;99.90;;;;;;5054358;28;20033;-81
2023/10/10 00:55:04;;;;;;;28.10;16.83;;;5.90;99.90;;;;;;5055439;28;20393;-78
2023/10/10 00:57:35;;;;;;;31.90;17.35;;;5.90;99.90;;;;;;5057289;28;20048;-82
2023/10/10 01:00:08;;;;;;;35.92;18.80;;;5.90;99.90;;;;;;5054787;28;20025;-78
2023/10/10 01:02:36;;;;;;;31.73;18.05;;;5.90;99.90;;;;;;5053470;28;20398;-78
2023/10/10 01:05:12;;;;;;;35.13;18.75;;;5.90;99.90;;;;;;5054095;28;20017;-82
2023/10/10 01:07:38;;;;;;;34.70;17.42;;;5.90;99.90;;;;;;5062425;28;20028;-78
2023/10/10 01:10:11;;;;;;;31.65;17.20;;;6.00;99.90;;;;;;5054102;28;20044;-82
2023/10/10 01:12:39;;;;;;;29.95;16.40;;;5.90;99.90;;;;;;5053777;28;20542;-78
2023/10/10 01:15:16;;;;;;;31.77;18.42;;;6.00;99.90;;;;;;5053888;28;20044;-82
2023/10/10 01:17:43;;;;;;;37.72;20.00;;;5.90;99.90;;;;;;5053646;28;20048;-82
2023/10/10 01:22:59;;;;;;;35.67;19.25;;;5.90;99.90;;;;;;5054647;28;20029;-78
2023/10/10 01:25:42;;;;;;;33.40;18.77;;;5.90;99.90;;;;;;5053575;28;20025;-78
2023/10/10 01:28:23;;;;;;;35.40;19.10;;;5.80;99.90;;;;;;5034960;28;20387;-78
2023/10/10 01:36:13;;;;;;;33.80;17.77;;;5.80;99.90;;;;;;5057990;28;20028;-82
2023/10/10 01:38:56;;;;;;;40.42;19.38;;;5.80;99.90;;;;;;5053360;28;20096;-81
2023/10/10 01:41:23;;;;;;;35.15;18.65;;;5.80;99.90;;;;;;5053700;28;20029;-82
2023/10/10 01:44:08;;;;;;;34.80;18.40;;;5.90;99.90;;;;;;5059932;28;20013;-78
2023/10/10 01:46:35;;;;;;;34.28;18.85;;;5.90;99.90;;;;;;5053207;28;20060;-78
2023/10/10 01:49:06;;;;;;;31.20;18.17;;;5.90;99.90;;;;;;5045844;28;20056;-78
2023/10/10 01:51:37;;;;;;;37.60;19.67;;;5.90;99.90;;;;;;5050973;28;20414;-82
2023/10/10 01:54:13;;;;;;;36.72;18.13;;;5.90;99.90;;;;;;5053210;28;20483;-78
2023/10/10 01:56:39;;;;;;;34.88;18.92;;;5.90;99.90;;;;;;5054363;28;20540;-81
2023/10/10 01:59:09;;;;;;;34.65;18.85;;;5.90;99.90;;;;;;5054280;28;20033;-78
2023/10/10 02:01:35;;;;;;;32.78;18.33;;;5.90;99.90;;;;;;5057443;28;20021;-81
2023/10/10 02:04:05;;;;;;;39.50;18.45;;;5.90;99.90;;;;;;5052892;28;20035;-82
2023/10/10 02:06:34;;;;;;;35.80;18.73;;;5.90;99.90;;;;;;5063848;28;20446;-82
2023/10/10 02:11:50;;;;;;;34.85;19.58;;;6.00;99.90;;;;;;5055953;28;20029;-82
2023/10/10 02:14:24;;;;;;;33.38;18.42;;;6.00;99.90;;;;;;5053584;28;20025;-78
2023/10/10 02:16:54;;;;;;;33.38;19.65;;;6.00;99.90;;;;;;5056088;28;20029;-81
2023/10/10 02:19:32;;;;;;;32.85;18.23;;;6.00;99.90;;;;;;5053847;28;20028;-81
2023/10/10 02:22:22;;;;;;;31.38;17.90;;;6.00;99.90;;;;;;5053841;28;20021;-82
2023/10/10 02:25:31;;;;;;;27.88;15.50;;;6.00;99.90;;;;;;5049909;28;20103;-78
2023/10/10 02:27:54;;;;;;;33.25;16.67;;;6.00;99.90;;;;;;5054748;28;20083;-78
2023/10/10 02:30:34;;;;;;;30.42;17.17;;;6.00;99.90;;;;;;5052274;28;20021;-78
2023/10/10 02:35:55;;;;;;;34.33;17.35;;;5.90;99.90;;;;;;5049106;28;20037;-78
2023/10/10 02:38:32;;;;;;;32.55;16.00;;;5.90;99.90;;;;;;5046430;28;20035;-82
2023/10/10 02:46:38;;;;;;;26.67;15.05;;;5.90;99.90;;;;;;5053341;28;20044;-78
2023/10/10 02:49:30;;;;;;;27.67;16.23;;;5.90;99.90;;;;;;5047157;28;20028;-82
2023/10/10 02:51:56;;;;;;;29.48;16.05;;;5.90;99.90;;;;;;5054675;28;20024;-78
2023/10/10 02:59:52;;;;;;;28.65;15.52;;;5.80;99.90;;;;;;5049996;28;20032;-78
2023/10/10 03:02:19;;;;;;;27.05;14.85;;;5.80;99.90;;;;;;5051923;28;20107;-78
2023/10/10 03:04:55;;;;;;;26.67;15.60;;;5.80;99.90;;;;;;5051875;28;20044;-78
2023/10/10 03:07:29;;;;;;;29.13;16.67;;;5.80;99.90;;;;;;5060577;28;20028;-78
2023/10/10 03:12:44;;;;;;;31.83;18.15;;;5.80;99.90;;;;;;5051963;28;20094;-82
2023/10/10 03:20:24;;;;;;;27.17;16.27;;;5.80;99.90;;;;;;5053176;28;20112;-81
2023/10/10 03:25:54;;;;;;;29.70;15.95;;;5.80;99.90;;;;;;5064159;28;20033;-78
2023/10/10 03:28:29;;;;;;;26.13;14.27;;;5.70;99.90;;;;;;5061330;28;20040;-81
2023/10/10 03:31:10;;;;;;;24.85;15.40;;;5.70;99.90;;;;;;5052273;28;20112;-81
2023/10/10 05:25:22;;;;;;;20.52;12.90;;;5.80;99.90;;;;;;5055249;28;20075;-78
2023/10/10 05:27:52;;;;;;;22.75;12.02;;;5.80;99.90;;;;;;5057344;28;20029;-82
2023/10/10 05:30:39;;;;;;;20.08;11.73;;;5.80;99.90;;;;;;5060611;28;20021;-82
2023/10/10 05:33:06;;;;;;;20.90;11.85;;;5.80;99.90;;;;;;5054970;28;20025;-78
2023/10/10 05:35:33;;;;;;;23.95;12.77;;;5.90;99.90;;;;;;5053408;28;20021;-78
2023/10/10 05:38:04;;;;;;;19.13;11.55;;;5.90;99.90;;;;;;5053407;28;20107;-82
2023/10/10 05:40:33;;;;;;;21.13;12.45;;;5.90;99.90;;;;;;5054772;28;20052;-78
2023/10/10 05:43:02;;;;;;;22.60;12.88;;;5.90;99.90;;;;;;5054670;28;20053;-82
2023/10/10 05:45:29;;;;;;;22.27;11.98;;;6.00;99.90;;;;;;5053242;28;20025;-78
2023/10/10 05:47:55;;;;;;;17.33;10.32;;;6.00;99.90;;;;;;5053073;28;20044;-78
2023/10/10 05:50:22;;;;;;;17.38;10.80;;;6.10;99.90;;;;;;5053026;28;20024;-82
2023/10/10 05:52:48;;;;;;;17.60;10.38;;;6.10;99.90;;;;;;5054951;28;20017;-78
2023/10/10 05:55:15;;;;;;;16.60;10.15;;;6.10;99.90;;;;;;5053067;28;20035;-82
2023/10/10 05:57:41;;;;;;;22.45;11.48;;;6.10;99.90;;;;;;5053124;28;20075;-82
2023/10/10 06:00:13;;;;;;;17.05;10.02;;;6.10;99.90;;;;;;5054135;28;20033;-82
2023/10/10 06:02:43;;;;;;;25.52;13.02;;;6.20;99.90;;;;;;5060566;28;20028;-82
2023/10/10 06:05:09;;;;;;;20.83;11.95;;;6.20;99.90;;;;;;5052878;28;20116;-78
2023/10/10 06:07:44;;;;;;;18.13;11.70;;;6.20;99.90;;;;;;5052854;28;20037;-82
2023/10/10 06:10:17;;;;;;;20.08;11.32;;;6.30;99.90;;;;;;5049476;28;20024;-82
2023/10/10 06:12:44;;;;;;;18.65;12.60;;;6.30;99.90;;;;;;5055079;28;20063;-78
2023/10/10 06:15:11;;;;;;;22.75;13.20;;;6.30;99.90;;;;;;5052786;28;20032;-78
2023/10/10 06:17:38;;;;;;;21.58;12.48;;;6.30;99.90;;;;;;5052669;28;20029;-78
2023/10/10 06:20:16;;;;;;;19.73;12.30;;;6.40;99.90;;;;;;5052783;28;20028;-78
2023/10/10 06:22:47;;;;;;;25.63;13.98;;;6.40;99.90;;;;;;5053783;28;20020;-78
2023/10/10 06:25:17;;;;;;;52.72;26.90;;;6.30;99.90;;;;;;5061596;28;20020;-82
2023/10/10 06:27:45;;;;;;;28.83;17.17;;;6.40;99.90;;;;;;5053955;28;20047;-82
2023/10/10 06:30:20;;;;;;;26.50;16.48;;;6.50;99.90;;;;;;5053775;28;20095;-79
2023/10/10 06:32:47;;;;;;;37.90;21.02;;;6.50;99.90;;;;;;5040503;28;20048;-82
2023/10/10 06:35:27;;;;;;;33.22;17.48;;;6.60;99.90;;;;;;5053705;28;20024;-78
2023/10/10 06:37:53;;;;;;;23.92;14.43;;;6.60;99.90;;;;;;5042399;28;20028;-82
2023/10/10 06:40:25;;;;;;;23.95;14.88;;;6.70;99.90;;;;;;5053382;28;20025;-81
2023/10/10 06:42:57;;;;;;;20.63;12.55;;;6.80;99.90;;;;;;5059368;28;20359;-78
2023/10/10 06:45:24;;;;;;;24.70;13.43;;;6.90;99.90;;;;;;5053704;28;20067;-82
2023/10/10 06:47:56;;;;;;;29.38;15.57;;;6.90;99.90;;;;;;5052057;28;20053;-78
2023/10/10 06:50:21;;;;;;;25.50;15.30;;;7.00;99.90;;;;;;5062938;28;20009;-78
2023/10/10 06:52:52;;;;;;;24.20;13.80;;;7.00;99.90;;;;;;5051240;28;20029;-83
2023/10/10 06:55:22;;;;;;;24.02;14.55;;;7.10;99.90;;;;;;5052839;28;20044;-83
2023/10/10 06:58:01;;;;;;;21.88;13.90;;;7.10;99.90;;;;;;5052490;28;20108;-82
2023/10/10 07:00:29;;;;;;;26.08;13.48;;;7.10;99.90;;;;;;5045651;28;20605;-83
2023/10/10 07:02:56;;;;;;;27.27;17.05;;;7.10;99.90;;;;;;5052904;28;20071;-78
2023/10/10 07:05:33;;;;;;;20.77;12.45;;;7.10;99.90;;;;;;5051779;28;20045;-78
2023/10/10 07:08:12;;;;;;;19.88;11.50;;;7.20;99.90;;;;;;5051305;28;20037;-79
2023/10/10 07:10:41;;;;;;;22.63;12.80;;;7.30;99.90;;;;;;5051541;28;20033;-78
2023/10/10 07:13:14;;;;;;;20.35;12.35;;;7.30;99.90;;;;;;5051209;28;20092;-78
2023/10/10 07:15:51;;;;;;;21.95;13.68;;;7.40;99.90;;;;;;5051450;28;20116;-78
2023/10/10 07:18:22;;;;;;;22.73;12.52;;;7.40;99.90;;;;;;5051102;28;20021;-78
2023/10/10 07:21:04;;;;;;;35.58;19.85;;;7.50;99.90;;;;;;5052822;28;20017;-78
2023/10/10 07:23:37;;;;;;;19.15;11.27;;;7.60;99.90;;;;;;5051050;28;20021;-78
2023/10/10 07:26:21;;;;;;;20.90;11.63;;;7.60;99.90;;;;;;5051706;28;20092;-78
2023/10/10 07:28:49;;;;;;;20.42;11.82;;;7.60;99.90;;;;;;5051321;28;20497;-78
2023/10/10 07:31:20;;;;;;;20.02;12.32;;;7.70;99.90;;;;;;5038628;28;20431;-79
2023/10/10 07:33:55;;;;;;;23.13;13.25;;;7.80;99.90;;;;;;5055144;28;20373;-78
2023/10/10 07:36:25;;;;;;;18.08;10.02;;;7.80;99.90;;;;;;5051674;28;20112;-82
2023/10/10 07:38:54;;;;;;;19.10;11.48;;;7.80;99.90;;;;;;5052524;28;20025;-82
2023/10/10 07:41:27;;;;;;;19.65;12.13;;;7.90;99.90;;;;;;5052897;28;20021;-82
2023/10/10 07:43:59;;;;;;;20.63;11.70;;;7.90;99.90;;;;;;5061342;28;20021;-79
2023/10/10 07:46:27;;;;;;;17.25;10.52;;;7.90;99.90;;;;;;5050394;28;20412;-79
2023/10/10 07:48:56;;;;;;;20.33;11.80;;;7.90;99.90;;;;;;5050429;28;20025;-79
2023/10/10 07:51:28;;;;;;;37.72;17.45;;;8.00;99.90;;;;;;5052784;28;20056;-78
2023/10/10 07:54:12;;;;;;;31.55;14.15;;;8.10;99.90;;;;;;5050197;28;20371;-78
2023/10/10 07:56:45;;;;;;;28.15;15.50;;;8.10;99.90;;;;;;5048888;28;20021;-78
2023/10/10 07:59:16;;;;;;;16.63;10.43;;;8.20;99.90;;;;;;5050348;28;20025;-78
2023/10/10 08:01:42;;;;;;;17.13;10.80;;;8.20;99.90;;;;;;5057087;28;20037;-82
2023/10/10 08:04:12;;;;;;;18.30;11.35;;;8.20;99.90;;;;;;5052305;28;20056;-83
2023/10/10 08:06:38;;;;;;;23.58;12.65;;;8.30;99.90;;;;;;5052131;28;20497;-79
2023/10/10 08:09:18;;;;;;;26.35;13.15;;;8.30;99.90;;;;;;5051091;28;20222;-79
2023/10/10 08:11:47;;;;;;;20.15;10.65;;;8.40;99.90;;;;;;5050411;28;20067;-82
2023/10/10 08:14:13;;;;;;;18.00;11.63;;;8.30;99.90;;;;;;5052027;28;20056;-78
2023/10/10 08:16:40;;;;;;;20.85;10.93;;;8.40;99.90;;;;;;5052432;28;20021;-82
2023/10/10 08:19:08;;;;;;;29.10;14.73;;;8.50;99.90;;;;;;5056517;28;20493;-79
2023/10/10 08:21:38;;;;;;;26.13;13.18;;;8.60;99.90;;;;;;5051160;28;20029;-82
2023/10/10 08:24:08;;;;;;;20.42;12.25;;;8.70;99.90;;;;;;5051723;28;20502;-79
2023/10/10 08:26:41;;;;;;;24.40;14.10;;;8.70;99.90;;;;;;5050881;28;20048;-83
2023/10/10 08:29:12;;;;;;;22.10;13.95;;;8.80;99.90;;;;;;5063518;28;20052;-79
2023/10/10 08:31:42;;;;;;;35.33;16.25;;;8.80;99.90;;;;;;5054940;28;20513;-83
2023/10/10 08:34:11;;;;;;;22.10;12.70;;;8.80;99.90;;;;;;5055754;28;20033;-78
2023/10/10 08:36:43;;;;;;;27.30;14.55;;;8.80;99.90;;;;;;5054774;28;20025;-79
2023/10/10 08:39:17;;;;;;;33.60;14.55;;;8.70;99.90;;;;;;5054348;28;20041;-78
2023/10/10 08:41:43;;;;;;;32.35;17.27;;;8.70;99.90;;;;;;5049207;28;20137;-83
2023/10/10 08:44:10;;;;;;;25.17;16.67;;;8.80;99.90;;;;;;5055772;28;20558;-79
2023/10/10 08:46:46;;;;;;;21.00;13.88;;;8.80;99.90;;;;;;5054316;28;20045;-83
2023/10/10 08:49:13;;;;;;;30.33;15.88;;;8.70;99.90;;;;;;5055735;28;20021;-83
2023/10/10 08:51:41;;;;;;;56.38;26.35;;;8.70;99.90;;;;;;5054255;28;20021;-83
2023/10/10 08:54:12;;;;;;;55.88;26.23;;;8.80;99.90;;;;;;5055680;28;20044;-78
2023/10/10 08:56:59;;;;;;;27.83;14.57;;;8.80;99.90;;;;;;5051409;28;20029;-79
2023/10/10 08:59:28;;;;;;;27.77;15.70;;;8.80;99.90;;;;;;5055594;28;20116;-79
2023/10/10 09:02:17;;;;;;;33.90;16.33;;;8.80;99.90;;;;;;5041695;28;20386;-83
2023/10/10 09:04:43;;;;;;;27.67;15.00;;;8.80;99.90;;;;;;5055336;28;20028;-79
2023/10/10 09:07:11;;;;;;;29.70;15.82;;;8.80;99.90;;;;;;5063305;28;20524;-79
2023/10/10 09:09:40;;;;;;;33.22;17.70;;;8.80;99.90;;;;;;5056354;28;20017;-83
2023/10/10 09:12:14;;;;;;;30.50;17.52;;;8.80;99.90;;;;;;5054072;28;20482;-79
2023/10/10 09:14:50;;;;;;;41.92;20.02;;;8.90;99.90;;;;;;5053864;28;20044;-79
2023/10/10 09:17:35;;;;;;;27.58;15.93;;;9.00;99.90;;;;;;5057747;28;20103;-83
2023/10/10 09:20:17;;;;;;;35.28;17.60;;;9.10;99.90;;;;;;5055094;28;20035;-79
2023/10/10 09:22:44;;;;;;;26.30;16.40;;;9.30;99.90;;;;;;5054888;28;20025;-83
2023/10/10 09:25:21;;;;;;;29.92;15.98;;;9.30;99.90;;;;;;5053844;28;20021;-79
2023/10/10 09:27:58;;;;;;;30.00;15.13;;;9.40;99.90;;;;;;5054956;28;20029;-79
2023/10/10 09:30:33;;;;;;;31.67;16.92;;;9.40;99.90;;;;;;5056278;28;20112;-79
2023/10/10 09:33:12;;;;;;;27.55;16.20;;;9.50;99.90;;;;;;5053721;28;20021;-78
2023/10/10 09:35:40;;;;;;;25.83;14.85;;;9.60;99.90;;;;;;5054752;28;20474;-83
2023/10/10 09:38:15;;;;;;;29.33;15.90;;;9.60;99.90;;;;;;5053436;28;20021;-78
2023/10/10 09:40:42;;;;;;;23.40;14.18;;;9.60;99.90;;;;;;5052982;28;20027;-78
2023/10/10 09:43:24;;;;;;;31.00;15.65;;;9.70;99.90;;;;;;5062821;28;20031;-78
2023/10/10 09:46:10;;;;;;;25.02;14.57;;;9.80;99.90;;;;;;5042008;28;20020;-83
2023/10/10 09:54:15;;;;;;;22.25;14.63;;;9.90;99.90;;;;;;5053982;28;20108;-78
2023/10/10 09:56:50;;;;;;;26.95;16.55;;;9.90;99.90;;;;;;5054425;28;20387;-83
2023/10/10 09:59:20;;;;;;;30.58;16.90;;;10.00;99.90;;;;;;5054440;28;20021;-78
2023/10/10 10:01:59;;;;;;;29.95;16.65;;;10.00;99.90;;;;;;5060202;28;20031;-83
2023/10/10 10:04:28;;;;;;;27.38;15.57;;;10.00;99.90;;;;;;5054252;28;20083;-79
2023/10/10 10:07:12;;;;;;;30.25;16.15;;;10.00;99.90;;;;;;5054334;28;20037;-83
2023/10/10 10:10:20;;;;;;;30.45;16.92;;;10.10;99.90;;;;;;5052789;28;20012;-83
2023/10/10 10:12:59;;;;;;;26.75;14.57;;;10.10;99.90;;;;;;5051641;28;20021;-83
2023/10/10 10:15:48;;;;;;;30.95;16.60;;;10.10;99.90;;;;;;5054296;28;20013;-83
2023/10/10 10:18:26;;;;;;;26.85;14.88;;;10.20;99.90;;;;;;5052965;28;20453;-83
2023/10/10 10:23:34;;;;;;;32.20;15.95;;;10.10;99.90;;;;;;5054573;28;20099;-82
2023/10/10 10:26:12;;;;;;;26.83;15.68;;;10.20;99.90;;;;;;5063691;28;20390;-78
2023/10/10 10:28:42;;;;;;;29.90;16.60;;;10.20;99.90;;;;;;5052533;28;20445;-78
2023/10/10 10:31:28;;;;;;;26.42;16.08;;;10.20;99.90;;;;;;5039934;28;20437;-83
2023/10/10 10:37:02;;;;;;;27.80;15.88;;;10.40;99.90;;;;;;5054151;28;20043;-83
2023/10/10 10:39:35;;;;;;;27.58;16.45;;;10.40;99.90;;;;;;5053774;28;20025;-78
2023/10/10 10:42:15;;;;;;;27.60;15.82;;;10.60;99.90;;;;;;5052189;28;20036;-78
2023/10/10 10:44:54;;;;;;;22.08;12.98;;;10.60;99.90;;;;;;5033848;28;20022;-83
2023/10/10 10:47:35;;;;;;;26.15;15.20;;;10.70;99.90;;;;;;5061793;28;20049;-83
2023/10/10 10:50:05;;;;;;;24.10;14.98;;;10.60;99.90;;;;;;5052016;28;20493;-84
2023/10/10 10:52:55;;;;;;;26.63;15.90;;;10.60;99.90;;;;;;5052911;28;20055;-79
2023/10/10 10:55:27;;;;;;;28.00;14.60;;;10.60;99.90;;;;;;5054575;28;20021;-84
2023/10/10 10:58:06;;;;;;;30.10;16.02;;;10.70;99.90;;;;;;5050776;28;20032;-78
2023/10/10 11:01:00;;;;;;;27.58;15.25;;;10.70;99.90;;;;;;5042846;28;20033;-83
2023/10/10 11:03:37;;;;;;;25.77;16.25;;;10.60;99.90;;;;;;5053904;28;20032;-83
2023/10/10 11:06:07;;;;;;;23.67;14.52;;;10.60;99.90;;;;;;5057534;28;20021;-79
2023/10/10 11:11:24;;;;;;;22.33;13.40;;;10.60;99.90;;;;;;5051757;28;20021;-79
2023/10/10 11:14:00;;;;;;;28.23;15.00;;;10.60;99.90;;;;;;5055129;28;20555;-79
2023/10/10 11:16:39;;;;;;;25.27;15.65;;;10.60;99.90;;;;;;5052872;28;20013;-83
2023/10/10 11:19:19;;;;;;;27.00;16.00;;;10.70;99.90;;;;;;5051236;28;20106;-84
2023/10/10 11:21:53;;;;;;;24.77;14.25;;;10.60;99.90;;;;;;5053002;28;20422;-83
2023/10/10 11:24:37;;;;;;;23.73;14.38;;;10.70;99.90;;;;;;5052726;28;20560;-78
2023/10/10 11:29:45;;;;;;;24.60;14.85;;;10.70;99.90;;;;;;5053124;28;20074;-84
2023/10/10 11:32:29;;;;;;;28.08;15.43;;;10.70;99.90;;;;;;5051234;28;20016;-78
2023/10/10 11:37:59;;;;;;;31.50;16.75;;;10.80;99.90;;;;;;5056165;28;20025;-79
2023/10/10 11:42:56;;;;;;;28.35;13.85;;;10.80;99.90;;;;;;5053068;28;20093;-79
2023/10/10 11:45:26;;;;;;;26.15;15.55;;;10.80;99.90;;;;;;5051083;28;20018;-78
2023/10/10 11:48:05;;;;;;;23.75;14.07;;;10.80;99.90;;;;;;5051128;28;20413;-84
2023/10/10 11:50:51;;;;;;;22.42;14.50;;;10.90;99.90;;;;;;5051072;28;20024;-79
2023/10/10 11:53:24;;;;;;;21.83;13.30;;;10.90;99.90;;;;;;5050909;28;20539;-84
2023/10/10 11:55:54;;;;;;;25.27;14.55;;;10.90;99.90;;;;;;5052976;28;20115;-78
2023/10/10 11:58:21;;;;;;;26.77;15.15;;;11.00;99.90;;;;;;5055606;28;20013;-83
2023/10/10 12:01:03;;;;;;;25.23;14.82;;;11.00;99.90;;;;;;5052717;28;20033;-79
2023/10/10 12:06:00;;;;;;;24.52;13.55;;;11.10;99.90;;;;;;5056762;28;20128;-79
2023/10/10 12:08:26;;;;;;;19.63;14.02;;;11.20;99.90;;;;;;5055169;28;20079;-84
2023/10/10 12:11:04;;;;;;;27.90;15.75;;;11.20;99.90;;;;;;5054309;28;20489;-79
2023/10/10 12:15:57;;;;;;;21.98;14.05;;;11.30;99.90;;;;;;5056195;28;20021;-79
2023/10/10 12:18:26;;;;;;;26.38;14.70;;;11.30;99.90;;;;;;5056796;28;20021;-84
2023/10/10 12:20:55;;;;;;;32.72;16.92;;;11.40;99.90;;;;;;5060083;28;20017;-84
2023/10/10 12:23:20;;;;;;;21.23;13.98;;;11.40;99.90;;;;;;5056345;28;20025;-84
2023/10/10 12:25:46;;;;;;;22.90;14.50;;;11.40;99.90;;;;;;5056044;28;20024;-79
2023/10/10 12:28:17;;;;;;;24.90;13.13;;;11.40;99.90;;;;;;5063472;28;20036;-84
2023/10/10 12:30:44;;;;;;;28.02;13.27;;;11.40;99.90;;;;;;5058980;28;20374;-79
2023/10/10 12:33:16;;;;;;;21.15;12.88;;;11.30;99.90;;;;;;5056019;28;20036;-84
2023/10/10 12:35:46;;;;;;;29.00;14.55;;;11.20;99.90;;;;;;5054508;28;20028;-79
2023/10/10 12:38:20;;;;;;;28.17;12.80;;;11.30;99.90;;;;;;5054451;28;20021;-79
2023/10/10 12:40:53;;;;;;;54.65;18.80;;;11.30;99.90;;;;;;5063654;28;20021;-84
2023/10/10 12:43:20;;;;;;;31.55;14.52;;;11.30;99.90;;;;;;5055137;28;20746;-84
2023/10/10 12:45:47;;;;;;;23.17;12.60;;;11.30;99.90;;;;;;5054723;28;20394;-79
2023/10/10 12:48:14;;;;;;;20.85;13.98;;;11.30;99.90;;;;;;5054356;28;20041;-84
2023/10/10 12:50:41;;;;;;;23.27;13.32;;;11.40;99.90;;;;;;5068074;28;20017;-79
2023/10/10 12:53:15;;;;;;;22.50;12.65;;;11.40;99.90;;;;;;5055714;28;20036;-79
2023/10/10 12:55:48;;;;;;;23.58;13.13;;;11.40;99.90;;;;;;5054571;28;20167;-84
2023/10/10 12:58:16;;;;;;;22.85;13.30;;;11.40;99.90;;;;;;5061375;28;20028;-85
2023/10/10 13:00:51;;;;;;;24.30;12.95;;;11.40;99.90;;;;;;5055592;28;20493;-79
2023/10/10 13:03:28;;;;;;;25.60;13.82;;;11.40;99.90;;;;;;5055037;28;20051;-79
2023/10/10 13:06:02;;;;;;;23.90;15.77;;;11.40;99.90;;;;;;5054349;28;20033;-84
2023/10/10 13:08:39;;;;;;;22.60;13.38;;;11.40;99.90;;;;;;5064692;28;20517;-84
2023/10/10 13:11:19;;;;;;;23.15;12.80;;;11.40;99.90;;;;;;5054155;28;20039;-79
2023/10/10 13:13:58;;;;;;;23.42;13.43;;;11.50;99.90;;;;;;5055708;28;20051;-79
2023/10/10 13:19:11;;;;;;;40.97;16.73;;;11.60;99.90;;;;;;5061219;28;20029;-79
2023/10/10 13:21:47;;;;;;;27.40;14.27;;;11.60;99.90;;;;;;5053905;28;20478;-84
2023/10/10 13:24:13;;;;;;;31.90;16.30;;;11.60;99.90;;;;;;5053844;28;20111;-84
2023/10/10 13:26:50;;;;;;;31.52;15.15;;;11.60;99.90;;;;;;5055063;28;20025;-79
2023/10/10 13:29:16;;;;;;;24.77;14.75;;;11.60;99.90;;;;;;5053518;28;20044;-79
2023/10/10 13:31:44;;;;;;;28.13;14.95;;;11.60;99.90;;;;;;5055993;28;20067;-79
2023/10/10 13:34:11;;;;;;;24.85;14.48;;;11.60;99.90;;;;;;5053316;28;20112;-79
2023/10/10 13:36:37;;;;;;;23.90;14.45;;;11.60;99.90;;;;;;5053531;28;20032;-79
2023/10/10 13:39:07;;;;;;;40.85;19.48;;;11.60;99.90;;;;;;5053429;28;20478;-84
2023/10/10 13:41:36;;;;;;;41.30;18.17;;;11.60;99.90;;;;;;5061967;28;20082;-84
2023/10/10 13:44:03;;;;;;;24.02;14.10;;;11.60;99.90;;;;;;5053310;28;20040;-79
2023/10/10 13:46:37;;;;;;;27.02;15.18;;;11.60;99.90;;;;;;5054983;28;20441;-84
2023/10/10 13:49:04;;;;;;;31.35;17.27;;;11.60;99.90;;;;;;5061872;28;20379;-79
2023/10/10 13:51:37;;;;;;;48.67;23.73;;;11.60;99.90;;;;;;5059833;28;20021;-84
2023/10/10 13:54:03;;;;;;;37.85;20.85;;;11.60;99.90;;;;;;5054498;28;20020;-79
2023/10/10 13:56:30;;;;;;;31.90;18.38;;;11.60;99.90;;;;;;5053173;28;20029;-79
2023/10/10 13:58:57;;;;;;;32.10;18.30;;;11.60;99.90;;;;;;5054416;28;20028;-84
2023/10/10 14:03:57;;;;;;;24.42;14.48;;;11.60;99.90;;;;;;5054912;28;20056;-84
2023/10/10 14:06:26;;;;;;;32.40;15.30;;;11.50;99.90;;;;;;5052941;28;20119;-79
2023/10/10 14:08:57;;;;;;;33.47;17.38;;;11.50;99.90;;;;;;5054262;28;20044;-85
2023/10/10 14:11:23;;;;;;;27.08;16.48;;;11.50;99.90;;;;;;5051857;28;20024;-84
2023/10/10 14:13:53;;;;;;;35.15;17.85;;;11.50;99.90;;;;;;5056356;28;20021;-79
2023/10/10 14:16:21;;;;;;;28.02;15.80;;;11.50;99.90;;;;;;5053854;28;20028;-84
2023/10/10 14:18:49;;;;;;;28.23;15.38;;;11.40;99.90;;;;;;5052857;28;20433;-84
2023/10/10 14:21:17;;;;;;;57.00;28.77;;;11.50;99.90;;;;;;5053259;28;20025;-79
2023/10/10 14:23:46;;;;;;;36.92;19.95;;;11.50;99.90;;;;;;5059313;28;20478;-84
2023/10/10 14:26:18;;;;;;;34.65;19.73;;;11.50;99.90;;;;;;5039491;28;20021;-84
2023/10/10 14:28:52;;;;;;;36.67;20.02;;;11.50;99.90;;;;;;5053013;28;20036;-84
2023/10/10 14:31:23;;;;;;;35.90;20.20;;;11.50;99.90;;;;;;5053540;28;20024;-79
2023/10/10 14:33:50;;;;;;;36.30;20.13;;;11.50;99.90;;;;;;5052045;28;20680;-79
2023/10/10 14:36:17;;;;;;;38.53;20.20;;;11.50;99.90;;;;;;5052164;28;20036;-79
2023/10/10 14:38:45;;;;;;;35.83;19.63;;;11.50;99.90;;;;;;5053180;28;20037;-78
2023/10/10 14:41:17;;;;;;;34.65;18.05;;;11.50;99.90;;;;;;5053377;28;20049;-78
2023/10/10 14:43:47;;;;;;;32.53;16.88;;;11.50;99.90;;;;;;5053238;28;20024;-85
2023/10/10 14:46:23;;;;;;;29.65;18.60;;;11.50;99.90;;;;;;5053687;28;20053;-85
2023/10/10 14:49:16;;;;;;;38.28;20.67;;;11.50;99.90;;;;;;5053136;28;20498;-85
2023/10/10 14:51:39;;;;;;;38.20;21.00;;;11.50;99.90;;;;;;5053177;28;20062;-85
2023/10/10 14:54:07;;;;;;;38.05;19.60;;;11.50;99.90;;;;;;5053242;28;20040;-85
2023/10/10 14:56:38;;;;;;;40.50;23.02;;;11.50;99.90;;;;;;5036849;28;20033;-85
2023/10/10 14:59:05;;;;;;;39.58;21.73;;;11.50;99.90;;;;;;5043378;28;20017;-84
2023/10/10 15:01:35;;;;;;;44.05;23.80;;;11.50;99.90;;;;;;5049555;28;20025;-85
2023/10/10 15:04:05;;;;;;;43.15;21.65;;;11.50;99.90;;;;;;5052168;28;20487;-85
2023/10/10 15:06:35;;;;;;;40.20;20.70;;;11.50;99.90;;;;;;5053162;28;20028;-84
2023/10/10 15:09:01;;;;;;;33.55;19.00;;;11.50;99.90;;;;;;5051321;28;20039;-84
2023/10/10 15:11:28;;;;;;;36.40;20.83;;;11.50;99.90;;;;;;5052178;28;20071;-85
2023/10/10 15:13:55;;;;;;;38.00;18.52;;;11.50;99.90;;;;;;5051502;28;20048;-79
2023/10/10 15:16:23;;;;;;;42.67;21.77;;;11.40;99.90;;;;;;5051064;28;20009;-79
2023/10/10 15:18:52;;;;;;;35.25;18.75;;;11.40;99.90;;;;;;5049034;28;20078;-85
2023/10/10 15:21:21;;;;;;;33.28;18.85;;;11.40;99.90;;;;;;5050634;28;20025;-79
2023/10/10 15:23:47;;;;;;;38.75;18.20;;;11.40;99.90;;;;;;5048360;28;20128;-79
2023/10/10 15:26:20;;;;;;;720.08;416.48;;;11.40;99.90;;;;;;5048674;28;20115;-80
2023/10/10 15:28:46;;;;;;;574.13;309.27;;;11.40;99.90;;;;;;5045441;28;20041;-85
2023/10/10 15:31:13;;;;;;;471.42;235.57;;;11.30;99.90;;;;;;5049407;28;20024;-86
2023/10/10 15:33:47;;;;;;;348.42;164.07;;;11.30;99.90;;;;;;5047507;28;20063;-86
2023/10/10 15:36:13;;;;;;;194.93;96.60;;;11.30;99.90;;;;;;5047827;28;20394;-85
2023/10/10 15:38:44;;;;;;;189.35;97.75;;;11.30;99.90;;;;;;5044468;28;20129;-84
2023/10/10 15:41:28;;;;;;;157.27;83.93;;;11.30;99.90;;;;;;5047229;28;20037;-79
2023/10/10 15:44:02;;;;;;;97.35;52.70;;;11.30;99.90;;;;;;5047388;28;20020;-78
2023/10/10 15:46:33;;;;;;;75.43;40.60;;;11.20;99.90;;;;;;5046705;28;20048;-79
2023/10/10 15:49:02;;;;;;;69.68;39.25;;;11.20;99.90;;;;;;5047029;28;20048;-84
2023/10/10 15:51:35;;;;;;;43.00;22.85;;;11.20;99.90;;;;;;5040054;28;20021;-86
2023/10/10 15:54:02;;;;;;;49.30;29.60;;;11.20;99.90;;;;;;5045957;28;20028;-85
2023/10/10 15:56:28;;;;;;;46.60;24.75;;;11.20;99.90;;;;;;5040896;28;20501;-83
2023/10/10 15:58:55;;;;;;;60.60;33.58;;;11.20;99.90;;;;;;5052203;28;20017;-84